createdAt,value
2023-02-12T00:00:18.723Z,8.26
2023-02-12T00:02:46.318Z,8.27
2023-02-12T00:05:16.959Z,8.26
2023-02-12T00:07:44.572Z,8.26
2023-02-12T00:10:14.182Z,8.25
2023-02-12T00:12:41.760Z,8.26
2023-02-12T00:15:10.284Z,8.25
2023-02-12T00:17:38.004Z,8.23
2023-02-12T00:20:07.098Z,8.23
2023-02-12T00:22:36.141Z,8.23
2023-02-12T00:25:03.940Z,8.23
2023-02-12T00:27:33.907Z,8.22
2023-02-12T00:30:01.530Z,8.22
2023-02-12T00:32:29.227Z,8.19
2023-02-12T00:34:57.573Z,8.18
2023-02-12T00:37:25.351Z,8.18
2023-02-12T00:39:56.633Z,8.17
2023-02-12T00:42:24.280Z,8.17
2023-02-12T00:44:52.491Z,8.17
2023-02-12T00:47:20.084Z,8.17
2023-02-12T00:49:51.285Z,8.16
2023-02-12T00:52:21.182Z,8.16
2023-02-12T00:54:51.007Z,8.17
2023-02-12T00:57:20.451Z,8.17
2023-02-12T00:59:50.483Z,8.14
2023-02-12T01:02:18.917Z,8.13
2023-02-12T01:04:47.651Z,8.12
2023-02-12T01:07:16.492Z,8.11
2023-02-12T01:09:44.166Z,8.13
2023-02-12T01:12:12.513Z,8.12
2023-02-12T01:14:41.513Z,8.12
2023-02-12T01:17:09.215Z,8.11
2023-02-12T01:19:36.825Z,8.10
2023-02-12T01:22:05.579Z,8.10
2023-02-12T01:24:36.029Z,8.09
2023-02-12T01:27:03.729Z,8.08
2023-02-12T01:29:33.632Z,8.08
2023-02-12T01:32:03.562Z,8.07
2023-02-12T01:34:31.225Z,8.07
2023-02-12T01:36:59.018Z,8.06
2023-02-12T01:39:26.649Z,8.06
2023-02-12T01:41:54.303Z,8.04
2023-02-12T01:44:24.188Z,8.03
2023-02-12T01:46:56.729Z,8.03
2023-02-12T01:49:31.544Z,8.00
2023-02-12T01:52:03.872Z,8.00
2023-02-12T01:54:32.352Z,7.99
2023-02-12T01:57:01.559Z,7.98
2023-02-12T01:59:30.719Z,7.96
2023-02-12T02:01:59.011Z,7.95
2023-02-12T02:04:31.691Z,7.94
2023-02-12T02:07:03.002Z,7.93
2023-02-12T02:09:34.487Z,7.91
2023-02-12T02:12:23.498Z,7.89
2023-02-12T02:14:55.679Z,7.86
2023-02-12T02:17:35.291Z,7.84
2023-02-12T02:20:51.570Z,7.83
2023-02-12T02:23:51.700Z,7.81
2023-02-12T02:26:46.496Z,7.79
2023-02-12T02:29:30.565Z,7.77
2023-02-12T02:32:07.616Z,7.74
2023-02-12T02:34:41.406Z,7.74
2023-02-12T02:37:19.326Z,7.71
2023-02-12T02:39:53.406Z,7.69
2023-02-12T02:42:29.615Z,7.68
2023-02-12T02:45:03.154Z,7.67
2023-02-12T02:47:39.503Z,7.65
2023-02-12T02:50:16.501Z,7.62
2023-02-12T02:52:51.183Z,7.60
2023-02-12T02:58:18.493Z,7.57
2023-02-12T03:00:52.880Z,7.56
2023-02-12T03:03:29.672Z,7.53
2023-02-12T03:06:03.687Z,7.52
2023-02-12T03:08:36.635Z,7.49
2023-02-12T03:11:09.569Z,7.48
2023-02-12T03:13:42.229Z,7.47
2023-02-12T03:16:16.462Z,7.45
2023-02-12T03:18:51.333Z,7.44
2023-02-12T03:21:23.443Z,7.42
2023-02-12T03:24:23.417Z,7.40
2023-02-12T03:26:57.579Z,7.38
2023-02-12T03:29:30.595Z,7.36
2023-02-12T03:32:39.171Z,7.35
2023-02-12T03:35:13.871Z,7.32
2023-02-12T03:37:46.664Z,7.31
2023-02-12T03:40:21.479Z,7.30
2023-02-12T03:42:58.851Z,7.30
2023-02-12T03:45:42.540Z,7.30
2023-02-12T03:48:15.337Z,7.29
2023-02-12T03:50:49.916Z,7.30
2023-02-12T03:53:19.482Z,7.29
2023-02-12T03:55:54.227Z,7.29
2023-02-12T03:58:27.557Z,7.29
2023-02-12T04:00:58.515Z,7.31
2023-02-12T04:03:27.336Z,7.30
2023-02-12T04:05:58.487Z,7.30
2023-02-12T04:08:28.049Z,7.29
2023-02-12T04:11:06.387Z,7.30
2023-02-12T04:13:43.575Z,7.30
2023-02-12T04:16:20.930Z,7.30
2023-02-12T04:18:50.390Z,7.30
2023-02-12T04:21:38.091Z,7.31
2023-02-12T04:24:16.577Z,7.31
2023-02-12T04:26:53.670Z,7.30
2023-02-12T04:29:31.316Z,7.31
2023-02-12T04:32:07.812Z,7.31
2023-02-12T04:34:40.568Z,7.31
2023-02-12T04:37:17.641Z,7.30
2023-02-12T04:39:46.676Z,7.31
2023-02-12T04:42:14.378Z,7.30
2023-02-12T04:44:44.589Z,7.30
2023-02-12T04:47:13.602Z,7.31
2023-02-12T04:49:43.040Z,7.31
2023-02-12T04:52:12.076Z,7.31
2023-02-12T04:54:39.725Z,7.30
2023-02-12T04:57:07.321Z,7.30
2023-02-12T04:59:35.598Z,7.30
2023-02-12T05:02:03.372Z,7.30
2023-02-12T05:04:31.546Z,7.28
2023-02-12T05:06:59.102Z,7.28
2023-02-12T05:09:28.487Z,7.28
2023-02-12T05:11:56.504Z,7.28
2023-02-12T05:14:25.455Z,7.27
2023-02-12T05:16:53.108Z,7.27
2023-02-12T05:19:21.529Z,7.25
2023-02-12T05:21:50.986Z,7.26
2023-02-12T05:24:19.161Z,7.25
2023-02-12T05:26:49.422Z,7.25
2023-02-12T05:29:22.205Z,7.26
2023-02-12T05:31:50.677Z,7.25
2023-02-12T05:34:18.405Z,7.25
2023-02-12T05:36:46.570Z,7.23
2023-02-12T05:39:14.657Z,7.25
2023-02-12T05:41:43.915Z,7.24
2023-02-12T05:44:15.077Z,7.23
2023-02-12T05:46:47.662Z,7.24
2023-02-12T05:49:19.517Z,7.23
2023-02-12T05:51:47.986Z,7.23
2023-02-12T05:54:15.588Z,7.22
2023-02-12T05:56:45.642Z,7.23
2023-02-12T05:59:18.596Z,7.23
2023-02-12T06:01:48.247Z,7.23
2023-02-12T06:04:19.656Z,7.23
2023-02-12T06:06:47.836Z,7.23
2023-02-12T06:09:15.692Z,7.23
2023-02-12T06:11:43.990Z,7.23
2023-02-12T06:14:16.417Z,7.22
2023-02-12T06:16:46.621Z,7.22
2023-02-12T06:19:14.888Z,7.22
2023-02-12T06:21:43.107Z,7.22
2023-02-12T06:24:13.500Z,7.21
2023-02-12T06:26:46.501Z,7.22
2023-02-12T06:29:15.500Z,7.22
2023-02-12T06:31:44.678Z,7.21
2023-02-12T06:34:17.896Z,7.21
2023-02-12T06:36:48.203Z,7.21
2023-02-12T06:39:17.856Z,7.21
2023-02-12T06:41:45.538Z,7.22
2023-02-12T06:44:16.544Z,7.21
2023-02-12T06:46:44.232Z,7.22
2023-02-12T06:49:13.477Z,7.21
2023-02-12T06:51:41.485Z,7.20
2023-02-12T06:54:16.185Z,7.20
2023-02-12T06:56:44.628Z,7.20
2023-02-12T06:59:16.556Z,7.21
2023-02-12T07:01:44.525Z,7.21
2023-02-12T07:04:12.717Z,7.22
2023-02-12T07:06:42.562Z,7.22
2023-02-12T07:09:10.246Z,7.22
2023-02-12T07:11:38.783Z,7.21
2023-02-12T07:14:06.976Z,7.21
2023-02-12T07:16:36.656Z,7.22
2023-02-12T07:19:04.537Z,7.22
2023-02-12T07:21:57.872Z,7.22
2023-02-12T07:24:27.072Z,7.22
2023-02-12T07:26:56.565Z,7.23
2023-02-12T07:29:25.017Z,7.24
2023-02-12T07:31:54.498Z,7.25
2023-02-12T07:34:22.593Z,7.26
2023-02-12T07:36:50.518Z,7.26
2023-02-12T07:39:18.634Z,7.28
2023-02-12T07:41:46.255Z,7.30
2023-02-12T07:44:14.631Z,7.31
2023-02-12T07:46:46.279Z,7.32
2023-02-12T07:49:19.506Z,7.34
2023-02-12T07:51:51.933Z,7.35
2023-02-12T07:54:44.410Z,7.37
2023-02-12T07:57:12.624Z,7.39
2023-02-12T07:59:40.298Z,7.39
2023-02-12T08:02:09.611Z,7.40
2023-02-12T08:07:34.515Z,7.45
2023-02-12T08:10:02.118Z,7.47
2023-02-12T08:12:30.497Z,7.48
2023-02-12T08:14:58.626Z,7.53
2023-02-12T08:17:26.548Z,7.53
2023-02-12T08:19:55.592Z,7.53
2023-02-12T08:22:25.004Z,7.57
2023-02-12T08:24:52.613Z,7.59
2023-02-12T08:27:46.635Z,7.64
2023-02-12T08:30:18.358Z,7.66
2023-02-12T08:32:50.076Z,7.70
2023-02-12T08:35:19.432Z,7.74
2023-02-12T08:37:49.432Z,7.78
2023-02-12T08:40:18.615Z,7.82
2023-02-12T08:42:46.506Z,7.84
2023-02-12T08:45:14.072Z,7.87
2023-02-12T08:47:41.763Z,7.91
2023-02-12T08:50:10.603Z,7.93
2023-02-12T08:52:43.946Z,7.96
2023-02-12T08:55:11.712Z,7.99
2023-02-12T08:57:40.045Z,8.01
2023-02-12T09:00:09.598Z,8.04
2023-02-12T09:02:37.171Z,8.07
2023-02-12T09:05:05.502Z,8.09
2023-02-12T09:07:33.500Z,8.11
2023-02-12T09:10:02.510Z,8.14
2023-02-12T09:12:32.492Z,8.17
2023-02-12T09:15:01.028Z,8.20
2023-02-12T09:17:29.333Z,8.24
2023-02-12T09:19:57.588Z,8.27
2023-02-12T09:22:25.290Z,8.27
2023-02-12T09:24:54.830Z,8.34
2023-02-12T09:27:23.811Z,8.35
2023-02-12T09:29:52.125Z,8.37
2023-02-12T09:32:20.503Z,8.42
2023-02-12T09:34:49.517Z,8.47
2023-02-12T09:37:17.952Z,8.54
2023-02-12T09:39:51.147Z,8.56
2023-02-12T09:42:35.500Z,8.56
2023-02-12T09:45:13.503Z,8.60
2023-02-12T09:47:47.914Z,8.61
2023-02-12T09:50:44.516Z,8.67
2023-02-12T09:53:17.598Z,8.71
2023-02-12T09:55:46.526Z,8.74
2023-02-12T09:58:19.591Z,8.74
2023-02-12T10:00:47.433Z,8.74
2023-02-12T10:03:18.310Z,8.78
2023-02-12T10:05:51.732Z,8.78
2023-02-12T10:08:38.589Z,8.83
2023-02-12T10:11:29.572Z,8.86
2023-02-12T10:14:16.602Z,8.88
2023-02-12T10:17:00.510Z,8.93
2023-02-12T10:19:34.124Z,8.97
2023-02-12T10:22:17.407Z,8.99
2023-02-12T10:25:06.586Z,9.04
2023-02-12T10:27:40.858Z,9.04
2023-02-12T10:30:26.509Z,9.09
2023-02-12T10:33:02.575Z,9.14
2023-02-12T10:35:33.979Z,9.19
2023-02-12T10:38:08.724Z,9.22
2023-02-12T10:40:39.217Z,9.26
2023-02-12T10:43:14.514Z,9.34
2023-02-12T10:45:45.232Z,9.38
2023-02-12T10:48:20.743Z,9.40
2023-02-12T10:51:29.924Z,9.44
2023-02-12T10:53:58.517Z,9.44
2023-02-12T10:56:28.029Z,9.47
2023-02-12T10:58:59.276Z,9.51
2023-02-12T11:01:31.817Z,9.56
2023-02-12T11:04:00.931Z,9.58
2023-02-12T11:06:32.301Z,9.61
2023-02-12T11:09:00.801Z,9.67
2023-02-12T11:11:31.028Z,9.71
2023-02-12T11:17:26.537Z,9.77
2023-02-12T11:20:05.239Z,9.80
2023-02-12T11:22:35.527Z,9.81
2023-02-12T11:28:17.606Z,9.89
2023-02-12T11:30:54.605Z,9.88
2023-02-12T11:33:29.291Z,9.90
2023-02-12T11:36:01.060Z,9.97
2023-02-12T11:38:33.194Z,10.02
2023-02-12T11:41:07.759Z,10.10
2023-02-12T11:43:39.454Z,10.15
2023-02-12T11:46:09.222Z,10.18
2023-02-12T11:48:47.307Z,10.22
2023-02-12T11:51:45.475Z,10.27
2023-02-12T11:54:20.929Z,10.28
2023-02-12T11:56:49.040Z,10.26
2023-02-12T11:59:33.224Z,10.27
2023-02-12T12:02:06.522Z,10.31
2023-02-12T12:04:37.595Z,10.31
2023-02-12T12:07:16.524Z,10.32
2023-02-12T12:09:48.435Z,10.32
2023-02-12T12:12:22.684Z,10.33
2023-02-12T12:15:10.816Z,10.31
2023-02-12T12:18:04.155Z,10.31
2023-02-12T12:20:37.752Z,10.32
2023-02-12T12:23:11.855Z,10.33
2023-02-12T12:25:46.083Z,10.36
2023-02-12T12:28:31.640Z,10.36
2023-02-12T12:31:06.542Z,10.35
2023-02-12T12:33:44.107Z,10.41
2023-02-12T12:36:39.237Z,10.38
2023-02-12T12:39:19.608Z,10.43
2023-02-12T12:42:14.588Z,10.43
2023-02-12T12:45:02.596Z,10.45
2023-02-12T12:47:41.206Z,10.49
2023-02-12T12:50:28.609Z,10.52
2023-02-12T12:53:16.966Z,10.56
2023-02-12T12:56:08.526Z,10.60
2023-02-12T12:58:47.925Z,10.63
2023-02-12T13:01:47.352Z,10.62
2023-02-12T13:04:40.540Z,10.59
2023-02-12T13:07:19.743Z,10.57
2023-02-12T13:10:03.900Z,10.58
2023-02-12T13:12:46.610Z,10.59
2023-02-12T13:15:23.550Z,10.58
2023-02-12T13:18:02.618Z,10.59
2023-02-12T13:20:42.948Z,10.61
2023-02-12T13:23:16.245Z,10.61
2023-02-12T13:25:58.664Z,10.56
2023-02-12T13:28:35.753Z,10.52
2023-02-12T13:31:30.101Z,10.53
2023-02-12T13:33:59.539Z,10.52
2023-02-12T13:36:27.335Z,10.50
2023-02-12T13:38:59.620Z,10.53
2023-02-12T13:41:33.215Z,10.55
2023-02-12T13:44:13.167Z,10.57
2023-02-12T13:46:50.693Z,10.57
2023-02-12T13:49:27.161Z,10.60
2023-02-12T13:52:01.153Z,10.59
2023-02-12T13:54:41.740Z,10.60
2023-02-12T13:57:16.198Z,10.58
2023-02-12T13:59:51.047Z,10.55
2023-02-12T14:02:53.276Z,10.53
2023-02-12T14:05:34.597Z,10.52
2023-02-12T14:08:05.891Z,10.48
2023-02-12T14:10:37.269Z,10.50
2023-02-12T14:13:20.604Z,10.52
2023-02-12T14:15:51.711Z,10.52
2023-02-12T14:18:34.123Z,10.53
2023-02-12T14:21:41.154Z,10.52
2023-02-12T14:24:51.492Z,10.52
2023-02-12T14:27:31.841Z,10.52
2023-02-12T14:30:26.738Z,10.51
2023-02-12T14:33:12.436Z,10.49
2023-02-12T14:35:42.583Z,10.46
2023-02-12T14:38:47.556Z,10.45
2023-02-12T14:41:37.314Z,10.44
2023-02-12T14:44:45.671Z,10.44
2023-02-12T14:47:30.852Z,10.43
2023-02-12T14:50:03.900Z,10.42
2023-02-12T14:52:40.620Z,10.39
2023-02-12T14:55:21.095Z,10.39
2023-02-12T14:57:51.270Z,10.39
2023-02-12T15:00:26.844Z,10.38
2023-02-12T15:02:59.811Z,10.38
2023-02-12T15:05:31.543Z,10.37
2023-02-12T15:08:03.475Z,10.35
2023-02-12T15:10:39.553Z,10.34
2023-02-12T15:13:16.962Z,10.33
2023-02-12T15:15:50.243Z,10.33
2023-02-12T15:18:26.436Z,10.30
2023-02-12T15:21:00.103Z,10.30
2023-02-12T15:23:34.592Z,10.29
2023-02-12T15:26:04.437Z,10.28
2023-02-12T15:28:36.228Z,10.27
2023-02-12T15:31:10.276Z,10.25
2023-02-12T15:33:42.765Z,10.24
2023-02-12T15:36:17.005Z,10.22
2023-02-12T15:38:46.530Z,10.20
2023-02-12T15:41:27.344Z,10.20
2023-02-12T15:43:55.363Z,10.18
2023-02-12T15:46:24.028Z,10.17
2023-02-12T15:48:55.550Z,10.16
2023-02-12T15:51:31.255Z,10.14
2023-02-12T15:54:01.236Z,10.11
2023-02-12T15:56:29.520Z,10.10
2023-02-12T15:59:00.039Z,10.08
2023-02-12T16:01:31.017Z,10.06
2023-02-12T16:04:02.440Z,10.04
2023-02-12T16:06:34.167Z,10.03
2023-02-12T16:09:05.598Z,10.01
2023-02-12T16:11:35.106Z,9.99
2023-02-12T16:14:05.428Z,9.98
2023-02-12T16:16:45.567Z,9.96
2023-02-12T16:19:22.681Z,9.93
2023-02-12T16:22:19.592Z,9.90
2023-02-12T16:24:48.751Z,9.89
2023-02-12T16:27:20.798Z,9.86
2023-02-12T16:29:54.969Z,9.83
2023-02-12T16:32:35.074Z,9.83
2023-02-12T16:35:08.594Z,9.79
2023-02-12T16:37:45.986Z,9.78
2023-02-12T16:40:25.993Z,9.77
2023-02-12T16:42:59.388Z,9.75
2023-02-12T16:45:41.469Z,9.71
2023-02-12T16:48:11.166Z,9.68
2023-02-12T16:50:49.700Z,9.66
2023-02-12T16:53:46.863Z,9.63
2023-02-12T16:56:18.550Z,9.60
2023-02-12T16:58:48.225Z,9.59
2023-02-12T17:01:22.263Z,9.57
2023-02-12T17:03:51.036Z,9.54
2023-02-12T17:06:28.604Z,9.51
2023-02-12T17:08:57.578Z,9.49
2023-02-12T17:11:26.592Z,9.46
2023-02-12T17:13:56.287Z,9.43
2023-02-12T17:16:30.917Z,9.42
2023-02-12T17:18:59.687Z,9.39
2023-02-12T17:21:30.675Z,9.38
2023-02-12T17:23:58.392Z,9.36
2023-02-12T17:26:26.427Z,9.34
2023-02-12T17:28:56.533Z,9.32
2023-02-12T17:31:26.630Z,9.32
2023-02-12T17:33:54.615Z,9.29
2023-02-12T17:36:24.126Z,9.26
2023-02-12T17:38:53.723Z,9.24
2023-02-12T17:41:22.062Z,9.22
2023-02-12T17:43:49.773Z,9.20
2023-02-12T17:46:20.225Z,9.17
2023-02-12T17:48:48.280Z,9.15
2023-02-12T17:51:16.532Z,9.13
2023-02-12T17:53:44.826Z,9.12
2023-02-12T17:56:16.378Z,9.10
2023-02-12T17:58:44.696Z,9.08
2023-02-12T18:01:15.364Z,9.07
2023-02-12T18:03:44.052Z,9.06
2023-02-12T18:06:14.184Z,9.04
2023-02-12T18:08:42.565Z,9.03
2023-02-12T18:11:11.987Z,9.01
2023-02-12T18:13:42.448Z,8.99
2023-02-12T18:16:11.605Z,8.99
2023-02-12T18:18:40.518Z,8.98
2023-02-12T18:21:09.491Z,8.95
2023-02-12T18:23:38.070Z,8.90
2023-02-12T18:26:07.107Z,8.88
2023-02-12T18:28:35.256Z,8.86
2023-02-12T18:31:05.689Z,8.85
2023-02-12T18:33:34.054Z,8.82
2023-02-12T18:36:03.548Z,8.82
2023-02-12T18:38:31.810Z,8.82
2023-02-12T18:41:00.665Z,8.81
2023-02-12T18:43:29.544Z,8.80
2023-02-12T18:45:57.181Z,8.78
2023-02-12T18:48:26.374Z,8.77
2023-02-12T18:50:55.471Z,8.77
2023-02-12T18:53:23.369Z,8.75
2023-02-12T18:55:51.749Z,8.74
2023-02-12T18:58:19.376Z,8.73
2023-02-12T19:00:47.046Z,8.71
2023-02-12T19:03:15.629Z,8.71
2023-02-12T19:05:44.559Z,8.69
2023-02-12T19:08:12.675Z,8.68
2023-02-12T19:10:40.488Z,8.66
2023-02-12T19:13:08.883Z,8.65
2023-02-12T19:15:39.515Z,8.64
2023-02-12T19:18:07.614Z,8.63
2023-02-12T19:20:35.468Z,8.62
2023-02-12T19:23:04.451Z,8.60
2023-02-12T19:25:32.116Z,8.58
2023-02-12T19:27:59.751Z,8.57
2023-02-12T19:30:27.387Z,8.56
2023-02-12T19:32:55.012Z,8.55
2023-02-12T19:35:24.535Z,8.53
2023-02-12T19:37:52.191Z,8.52
2023-02-12T19:40:21.538Z,8.51
2023-02-12T19:42:49.236Z,8.50
2023-02-12T19:45:17.052Z,8.50
2023-02-12T19:47:44.642Z,8.49
2023-02-12T19:50:12.352Z,8.49
2023-02-12T19:52:40.140Z,8.48
2023-02-12T19:55:08.595Z,8.47
2023-02-12T19:57:38.491Z,8.45
2023-02-12T20:00:07.541Z,8.45
2023-02-12T20:02:35.255Z,8.44
2023-02-12T20:05:03.157Z,8.43
2023-02-12T20:07:30.781Z,8.41
2023-02-12T20:09:58.366Z,8.40
2023-02-12T20:12:26.098Z,8.39
2023-02-12T20:14:56.456Z,8.38
2023-02-12T20:17:24.943Z,8.37
2023-02-12T20:19:52.562Z,8.36
2023-02-12T20:22:22.185Z,8.35
2023-02-12T20:24:51.334Z,8.35
2023-02-12T20:27:22.543Z,8.35
2023-02-12T20:29:50.570Z,8.34
2023-02-12T20:32:19.581Z,8.33
2023-02-12T20:34:51.181Z,8.33
2023-02-12T20:37:19.198Z,8.32
2023-02-12T20:39:48.007Z,8.30
2023-02-12T20:42:15.624Z,8.31
2023-02-12T20:44:43.275Z,8.30
2023-02-12T20:47:10.914Z,8.30
2023-02-12T20:49:39.870Z,8.29
2023-02-12T20:52:07.921Z,8.30
2023-02-12T20:54:37.880Z,8.29
2023-02-12T20:57:08.600Z,8.27
2023-02-12T20:59:36.563Z,8.27
2023-02-12T21:02:04.481Z,8.26
2023-02-12T21:04:32.343Z,8.25
2023-02-12T21:07:01.511Z,8.25
2023-02-12T21:09:29.302Z,8.26
2023-02-12T21:11:58.986Z,8.22
2023-02-12T21:14:27.690Z,8.23
2023-02-12T21:16:56.609Z,8.22
2023-02-12T21:19:26.456Z,8.20
2023-02-12T21:21:55.316Z,8.20
2023-02-12T21:24:26.180Z,8.19
2023-02-12T21:26:55.576Z,8.20
2023-02-12T21:29:25.967Z,8.19
2023-02-12T21:31:55.716Z,8.18
2023-02-12T21:34:24.547Z,8.18
2023-02-12T21:36:55.078Z,8.17
2023-02-12T21:39:27.008Z,8.15
2023-02-12T21:41:56.695Z,8.15
2023-02-12T21:44:26.618Z,8.15
2023-02-12T21:46:56.537Z,8.14
2023-02-12T21:49:27.530Z,8.12
2023-02-12T21:51:57.839Z,8.11
2023-02-12T21:54:27.279Z,8.10
2023-02-12T21:56:55.465Z,8.10
2023-02-12T21:59:24.619Z,8.09
2023-02-12T22:01:53.930Z,8.09
2023-02-12T22:04:21.869Z,8.09
2023-02-12T22:06:52.468Z,8.09
2023-02-12T22:09:22.355Z,8.09
2023-02-12T22:11:52.872Z,8.07
2023-02-12T22:14:21.757Z,8.07
2023-02-12T22:16:49.738Z,8.06
2023-02-12T22:19:17.396Z,8.06
2023-02-12T22:21:46.016Z,8.06
2023-02-12T22:24:15.767Z,8.05
2023-02-12T22:26:45.723Z,8.06
2023-02-12T22:29:16.583Z,8.06
2023-02-12T22:31:47.414Z,8.06
2023-02-12T22:34:18.524Z,8.07
2023-02-12T22:36:47.005Z,8.06
2023-02-12T22:39:17.377Z,8.05
2023-02-12T22:41:45.412Z,8.06
2023-02-12T22:44:15.496Z,8.05
2023-02-12T22:46:44.089Z,8.05
2023-02-12T22:49:12.538Z,8.04
2023-02-12T22:51:41.594Z,8.06
2023-02-12T22:54:13.187Z,8.07
2023-02-12T22:56:41.094Z,8.02
2023-02-12T22:59:08.933Z,8.04
2023-02-12T23:01:39.583Z,7.99
2023-02-12T23:05:21.550Z,7.97
2023-02-12T23:09:28.650Z,7.98
2023-02-12T23:12:00.518Z,7.96
2023-02-12T23:14:28.135Z,7.95
2023-02-12T23:16:57.117Z,7.95
2023-02-12T23:19:25.051Z,7.96
2023-02-12T23:21:53.616Z,7.97
2023-02-12T23:24:23.515Z,7.97
2023-02-12T23:26:52.304Z,7.98
2023-02-12T23:30:09.832Z,8.00
2023-02-12T23:33:28.859Z,7.99
2023-02-12T23:37:10.472Z,7.97
2023-02-12T23:41:17.758Z,7.96
2023-02-12T23:43:47.525Z,7.96
2023-02-12T23:46:15.191Z,7.96
2023-02-12T23:48:44.392Z,7.96
2023-02-12T23:51:12.652Z,7.96
2023-02-12T23:53:41.065Z,7.97
2023-02-12T23:56:08.797Z,7.97
2023-02-12T23:58:36.550Z,7.96
